DAL125 LPPT-KBOS
Flight info
| Callsign | DAL125 |
|---|---|
| Flight time | N/A |
| Altitude | 36000 |
| Route | ELNUB DCT BANAL/M081F360 DCT 45N020W 47N030W 47N040W 46N050W DCT SUPRY/N0465F360 N114G KANNI DCT EURRO OOSHN5 |
| Aircraft | A339/H-SADE1E2E3GHIJ3J5M1P2RWXY/LB2D1 |
Departure
| Time | 2026-05-01 13:19 |
|---|---|
| Airport | Lisbon Humberto Delgado Airport (LPPT) |
Arrival
| Time | N/A |
|---|---|
| Airport | Boston Logan International Airport (KBOS) |
| Time | Latitude | Longitude | Altitude | Speed | Heading |
|---|---|---|---|---|---|
| 2026-05-01 12:31 | 38.76940 | -9.13747 | 349 ft | 0 kts | 78° |
| 2026-05-01 12:59 | 38.76939 | -9.13748 | 349 ft | 1 kts | 78° |
| 2026-05-01 12:59 | 38.76933 | -9.13786 | 349 ft | 2 kts | 78° |
| 2026-05-01 13:00 | 38.76935 | -9.13823 | 350 ft | 2 kts | 111° |
| 2026-05-01 13:00 | 38.76942 | -9.13840 | 350 ft | 2 kts | 127° |
| 2026-05-01 13:01 | 38.76964 | -9.13864 | 350 ft | 2 kts | 158° |
| 2026-05-01 13:01 | 38.76974 | -9.13868 | 350 ft | 0 kts | 168° |
| 2026-05-01 13:01 | 38.76978 | -9.13869 | 350 ft | 0 kts | 169° |
| 2026-05-01 13:07 | 38.77114 | -9.13322 | 343 ft | 14 kts | 348° |
| 2026-05-01 13:07 | 38.77216 | -9.13350 | 343 ft | 15 kts | 348° |
| 2026-05-01 13:07 | 38.77309 | -9.13375 | 343 ft | 15 kts | 348° |
| 2026-05-01 13:08 | 38.77400 | -9.13399 | 344 ft | 15 kts | 348° |
| 2026-05-01 13:08 | 38.77499 | -9.13425 | 346 ft | 14 kts | 348° |
| 2026-05-01 13:08 | 38.77594 | -9.13449 | 347 ft | 14 kts | 348° |
| 2026-05-01 13:08 | 38.77692 | -9.13476 | 349 ft | 14 kts | 348° |
| 2026-05-01 13:09 | 38.77788 | -9.13501 | 353 ft | 13 kts | 348° |
| 2026-05-01 13:09 | 38.77862 | -9.13521 | 354 ft | 9 kts | 348° |
| 2026-05-01 13:09 | 38.77927 | -9.13539 | 356 ft | 9 kts | 347° |
| 2026-05-01 13:09 | 38.78001 | -9.13560 | 359 ft | 14 kts | 347° |
| 2026-05-01 13:10 | 38.78118 | -9.13593 | 362 ft | 19 kts | 348° |
| 2026-05-01 13:10 | 38.78249 | -9.13629 | 364 ft | 18 kts | 348° |
| 2026-05-01 13:10 | 38.78366 | -9.13660 | 367 ft | 16 kts | 348° |
| 2026-05-01 13:10 | 38.78469 | -9.13688 | 370 ft | 14 kts | 348° |
| 2026-05-01 13:11 | 38.78548 | -9.13705 | 373 ft | 9 kts | 356° |
| 2026-05-01 13:11 | 38.78610 | -9.13664 | 372 ft | 12 kts | 60° |
| 2026-05-01 13:11 | 38.78647 | -9.13575 | 370 ft | 10 kts | 38° |
| 2026-05-01 13:11 | 38.78727 | -9.13523 | 367 ft | 16 kts | 24° |
| 2026-05-01 13:12 | 38.78848 | -9.13457 | 365 ft | 19 kts | 22° |
| 2026-05-01 13:12 | 38.78976 | -9.13391 | 363 ft | 20 kts | 22° |
| 2026-05-01 13:12 | 38.79109 | -9.13321 | 360 ft | 21 kts | 22° |
| 2026-05-01 13:12 | 38.79247 | -9.13247 | 358 ft | 21 kts | 22° |
| 2026-05-01 13:13 | 38.79384 | -9.13173 | 357 ft | 21 kts | 23° |
| 2026-05-01 13:13 | 38.79521 | -9.13100 | 356 ft | 21 kts | 22° |
| 2026-05-01 13:13 | 38.79651 | -9.13031 | 357 ft | 18 kts | 23° |
| 2026-05-01 13:13 | 38.79743 | -9.12981 | 357 ft | 8 kts | 24° |
| 2026-05-01 13:14 | 38.79771 | -9.12920 | 356 ft | 9 kts | 94° |
| 2026-05-01 13:14 | 38.79764 | -9.12882 | 355 ft | 0 kts | 106° |
| 2026-05-01 13:18 | 38.79763 | -9.12881 | 355 ft | 0 kts | 106° |
| 2026-05-01 13:18 | 38.79754 | -9.12843 | 355 ft | 7 kts | 111° |
| 2026-05-01 13:18 | 38.79718 | -9.12779 | 354 ft | 10 kts | 152° |
| 2026-05-01 13:18 | 38.79636 | -9.12786 | 353 ft | 18 kts | 198° |
| 2026-05-01 13:19 | 38.79316 | -9.12957 | 354 ft | 81 kts | 202° |
| 2026-05-01 13:19 | 38.78619 | -9.13328 | 363 ft | 134 kts | 202° |
| 2026-05-01 13:19 | 38.76518 | -9.14424 | 981 ft | 173 kts | 203° |
| 2026-05-01 13:20 | 38.75415 | -9.15021 | 1533 ft | 173 kts | 203° |
| 2026-05-01 13:20 | 38.74275 | -9.15625 | 1834 ft | 183 kts | 201° |
| 2026-05-01 13:20 | 38.73054 | -9.16253 | 2099 ft | 196 kts | 202° |
| 2026-05-01 13:21 | 38.70348 | -9.17668 | 2665 ft | 228 kts | 202° |
| 2026-05-01 13:21 | 38.68809 | -9.18474 | 2977 ft | 245 kts | 202° |
| 2026-05-01 13:21 | 38.67184 | -9.19334 | 3322 ft | 261 kts | 205° |
| 2026-05-01 13:21 | 38.65757 | -9.20756 | 3886 ft | 267 kts | 237° |
| 2026-05-01 13:22 | 38.65163 | -9.22943 | 4587 ft | 268 kts | 266° |
| 2026-05-01 13:22 | 38.65478 | -9.25275 | 5247 ft | 272 kts | 291° |
| 2026-05-01 13:22 | 38.66211 | -9.27509 | 5893 ft | 275 kts | 291° |
| 2026-05-01 13:22 | 38.66943 | -9.29759 | 6523 ft | 277 kts | 290° |
| 2026-05-01 13:23 | 38.67676 | -9.32058 | 7152 ft | 280 kts | 290° |
| 2026-05-01 13:23 | 38.68395 | -9.34348 | 7762 ft | 283 kts | 289° |
| 2026-05-01 13:23 | 38.69122 | -9.36681 | 8368 ft | 285 kts | 289° |
| 2026-05-01 13:23 | 38.69852 | -9.39047 | 8981 ft | 288 kts | 288° |
| 2026-05-01 13:24 | 38.70589 | -9.41440 | 9599 ft | 290 kts | 288° |
| 2026-05-01 13:24 | 38.71327 | -9.43843 | 10211 ft | 292 kts | 288° |
| 2026-05-01 13:24 | 38.72073 | -9.46276 | 10650 ft | 301 kts | 288° |
| 2026-05-01 13:25 | 38.73657 | -9.51481 | 11210 ft | 330 kts | 288° |
| 2026-05-01 13:25 | 38.74507 | -9.54266 | 11729 ft | 335 kts | 288° |
| 2026-05-01 13:25 | 38.75352 | -9.57022 | 12354 ft | 337 kts | 288° |
| 2026-05-01 13:25 | 38.76210 | -9.59831 | 13025 ft | 340 kts | 287° |
| 2026-05-01 13:26 | 38.77068 | -9.62641 | 13481 ft | 347 kts | 287° |
| 2026-05-01 13:26 | 38.77964 | -9.65602 | 13734 ft | 361 kts | 287° |
| 2026-05-01 13:26 | 38.78882 | -9.68633 | 14010 ft | 375 kts | 287° |
| 2026-05-01 13:26 | 38.79848 | -9.71823 | 14241 ft | 388 kts | 287° |
| 2026-05-01 13:27 | 38.80827 | -9.75054 | 14716 ft | 395 kts | 287° |
| 2026-05-01 13:27 | 38.81818 | -9.78315 | 15349 ft | 396 kts | 287° |
| 2026-05-01 13:27 | 38.83821 | -9.84932 | 16583 ft | 400 kts | 287° |
| 2026-05-01 13:28 | 38.85829 | -9.91586 | 17778 ft | 404 kts | 287° |
| 2026-05-01 13:28 | 38.86847 | -9.94968 | 18357 ft | 406 kts | 287° |
| 2026-05-01 13:29 | 38.88869 | -10.01699 | 19505 ft | 409 kts | 287° |
| 2026-05-01 13:29 | 38.90912 | -10.08520 | 20597 ft | 411 kts | 287° |
| 2026-05-01 13:30 | 38.95008 | -10.22248 | 22636 ft | 414 kts | 286° |
| 2026-05-01 13:31 | 38.97053 | -10.29130 | 23567 ft | 415 kts | 287° |
| 2026-05-01 13:31 | 39.00133 | -10.39519 | 24836 ft | 419 kts | 287° |
| 2026-05-01 13:32 | 39.02211 | -10.46553 | 25579 ft | 423 kts | 286° |
| 2026-05-01 13:33 | 39.05328 | -10.57152 | 26681 ft | 427 kts | 286° |
| 2026-05-01 13:33 | 39.07587 | -10.64234 | 27372 ft | 433 kts | 292° |
| 2026-05-01 13:34 | 39.10962 | -10.70771 | 28028 ft | 447 kts | 303° |
| 2026-05-01 13:34 | 39.15173 | -10.76741 | 28606 ft | 454 kts | 306° |
| 2026-05-01 13:35 | 39.19487 | -10.82705 | 29244 ft | 455 kts | 305° |
| 2026-05-01 13:35 | 39.21611 | -10.85647 | 29596 ft | 454 kts | 305° |
| 2026-05-01 13:35 | 39.25890 | -10.91591 | 30445 ft | 450 kts | 305° |
| 2026-05-01 13:36 | 39.28002 | -10.94537 | 30764 ft | 450 kts | 305° |
| 2026-05-01 13:36 | 39.30112 | -10.97483 | 31126 ft | 449 kts | 305° |
| 2026-05-01 13:36 | 39.34331 | -11.03376 | 31842 ft | 447 kts | 304° |
| 2026-05-01 13:37 | 39.36440 | -11.06332 | 32117 ft | 447 kts | 304° |
| 2026-05-01 13:37 | 39.38530 | -11.09263 | 32456 ft | 446 kts | 304° |
| 2026-05-01 13:37 | 39.40634 | -11.12214 | 32806 ft | 444 kts | 304° |
| 2026-05-01 13:37 | 39.42700 | -11.15116 | 33134 ft | 443 kts | 304° |
| 2026-05-01 13:38 | 39.46869 | -11.20979 | 33741 ft | 442 kts | 304° |
| 2026-05-01 13:38 | 39.48951 | -11.23912 | 34021 ft | 441 kts | 304° |
| 2026-05-01 13:38 | 39.51012 | -11.26819 | 34265 ft | 441 kts | 304° |
| 2026-05-01 13:39 | 39.53073 | -11.29728 | 34494 ft | 440 kts | 304° |
| 2026-05-01 13:39 | 39.55146 | -11.32658 | 34666 ft | 441 kts | 304° |
| 2026-05-01 13:39 | 39.57216 | -11.35587 | 34818 ft | 442 kts | 304° |
| 2026-05-01 13:39 | 39.59284 | -11.38517 | 34957 ft | 444 kts | 304° |
| 2026-05-01 13:40 | 39.61357 | -11.41453 | 35128 ft | 444 kts | 304° |
| 2026-05-01 13:40 | 39.63445 | -11.44415 | 35282 ft | 445 kts | 304° |
| 2026-05-01 13:40 | 39.65517 | -11.47355 | 35407 ft | 446 kts | 304° |
| 2026-05-01 13:40 | 39.67622 | -11.50345 | 35542 ft | 447 kts | 304° |
| 2026-05-01 13:41 | 39.69692 | -11.53290 | 35677 ft | 448 kts | 304° |
| 2026-05-01 13:41 | 39.71787 | -11.56271 | 35816 ft | 448 kts | 304° |
| 2026-05-01 13:41 | 39.73904 | -11.59286 | 35946 ft | 449 kts | 304° |
| 2026-05-01 13:41 | 39.75990 | -11.62260 | 36081 ft | 450 kts | 304° |
| 2026-05-01 13:42 | 39.78122 | -11.65303 | 36107 ft | 452 kts | 303° |
| 2026-05-01 13:42 | 39.82322 | -11.71312 | 36116 ft | 454 kts | 303° |
| 2026-05-01 13:43 | 39.86595 | -11.77432 | 36110 ft | 456 kts | 303° |
| 2026-05-01 13:43 | 39.90824 | -11.83495 | 36115 ft | 453 kts | 303° |
| 2026-05-01 13:44 | 39.93899 | -11.87916 | 36117 ft | 452 kts | 303° |
| 2026-05-01 13:44 | 39.98132 | -11.94011 | 36117 ft | 453 kts | 303° |
| 2026-05-01 13:45 | 40.02316 | -12.00046 | 36112 ft | 451 kts | 303° |
| 2026-05-01 13:45 | 40.06522 | -12.06131 | 36108 ft | 453 kts | 303° |
| 2026-05-01 13:46 | 40.10722 | -12.12217 | 36110 ft | 454 kts | 303° |
| 2026-05-01 13:46 | 40.14945 | -12.18348 | 36101 ft | 453 kts | 303° |
| 2026-05-01 13:47 | 40.19162 | -12.24486 | 36099 ft | 455 kts | 304° |
| 2026-05-01 13:47 | 40.23380 | -12.30633 | 36099 ft | 457 kts | 304° |
| 2026-05-01 13:48 | 40.27621 | -12.36830 | 36094 ft | 458 kts | 304° |
| 2026-05-01 13:48 | 40.31846 | -12.43009 | 36087 ft | 458 kts | 304° |
| 2026-05-01 13:49 | 40.36064 | -12.49194 | 36086 ft | 458 kts | 304° |
| 2026-05-01 13:49 | 40.40292 | -12.55406 | 36084 ft | 458 kts | 304° |
| 2026-05-01 13:50 | 40.44526 | -12.61641 | 36078 ft | 460 kts | 304° |
| 2026-05-01 13:50 | 40.48787 | -12.67930 | 36082 ft | 459 kts | 304° |
| 2026-05-01 13:51 | 40.53018 | -12.74182 | 36077 ft | 459 kts | 304° |
| 2026-05-01 13:51 | 40.57238 | -12.80435 | 36077 ft | 459 kts | 304° |
| 2026-05-01 13:52 | 40.61462 | -12.86706 | 36064 ft | 460 kts | 304° |
| 2026-05-01 13:52 | 40.65702 | -12.93014 | 36060 ft | 461 kts | 304° |
| 2026-05-01 13:53 | 40.69934 | -12.99322 | 36069 ft | 462 kts | 304° |
| 2026-05-01 13:53 | 40.76268 | -13.08790 | 36056 ft | 462 kts | 304° |
| 2026-05-01 13:54 | 40.80531 | -13.15180 | 36054 ft | 463 kts | 304° |
| 2026-05-01 13:54 | 40.84753 | -13.21518 | 36054 ft | 465 kts | 304° |
| 2026-05-01 13:55 | 40.89002 | -13.27918 | 36062 ft | 465 kts | 305° |
| 2026-05-01 13:55 | 40.93276 | -13.34363 | 36057 ft | 466 kts | 305° |
| 2026-05-01 13:56 | 40.97548 | -13.40821 | 36054 ft | 467 kts | 305° |
| 2026-05-01 13:56 | 41.01804 | -13.47261 | 36062 ft | 467 kts | 305° |
| 2026-05-01 13:57 | 41.06061 | -13.53723 | 36077 ft | 468 kts | 305° |
| 2026-05-01 13:57 | 41.10313 | -13.60191 | 36060 ft | 468 kts | 305° |
| 2026-05-01 13:58 | 41.14605 | -13.66737 | 36068 ft | 471 kts | 305° |
| 2026-05-01 13:58 | 41.18866 | -13.73243 | 36066 ft | 470 kts | 305° |
| 2026-05-01 13:59 | 41.23146 | -13.79795 | 36067 ft | 472 kts | 305° |
| 2026-05-01 13:59 | 41.27451 | -13.86401 | 36073 ft | 472 kts | 305° |
| 2026-05-01 14:00 | 41.31722 | -13.92969 | 36066 ft | 473 kts | 306° |
| 2026-05-01 14:00 | 41.36021 | -13.99594 | 36071 ft | 474 kts | 306° |
| 2026-05-01 14:01 | 41.40324 | -14.06241 | 36073 ft | 475 kts | 306° |
| 2026-05-01 14:01 | 41.44616 | -14.12880 | 36062 ft | 475 kts | 306° |
| 2026-05-01 14:02 | 41.48913 | -14.19551 | 36058 ft | 475 kts | 306° |
| 2026-05-01 14:02 | 41.53223 | -14.26252 | 36055 ft | 477 kts | 306° |
| 2026-05-01 14:03 | 41.57530 | -14.32962 | 36058 ft | 477 kts | 306° |
| 2026-05-01 14:03 | 41.61830 | -14.39679 | 36059 ft | 478 kts | 306° |
| 2026-05-01 14:04 | 41.66108 | -14.46373 | 36060 ft | 478 kts | 306° |
| 2026-05-01 14:04 | 41.69709 | -14.52022 | 36067 ft | 478 kts | 306° |
| 2026-05-01 14:05 | 41.74719 | -14.59900 | 36063 ft | 478 kts | 307° |
| 2026-05-01 14:05 | 41.79028 | -14.66690 | 36067 ft | 479 kts | 306° |
| 2026-05-01 14:06 | 41.83337 | -14.73498 | 36064 ft | 479 kts | 306° |
| 2026-05-01 14:06 | 41.85482 | -14.76895 | 36214 ft | 479 kts | 306° |
| 2026-05-01 14:06 | 41.87627 | -14.80292 | 36130 ft | 478 kts | 306° |
| 2026-05-01 14:07 | 41.91895 | -14.87070 | 36083 ft | 478 kts | 306° |
| 2026-05-01 14:08 | 41.98306 | -14.97279 | 36070 ft | 478 kts | 307° |
| 2026-05-01 14:08 | 42.02639 | -15.04081 | 36070 ft | 479 kts | 308° |
| 2026-05-01 14:09 | 42.07017 | -15.10770 | 36065 ft | 480 kts | 308° |
| 2026-05-01 14:09 | 42.11417 | -15.17514 | 36069 ft | 480 kts | 308° |
| 2026-05-01 14:10 | 42.15814 | -15.24285 | 36063 ft | 481 kts | 308° |
| 2026-05-01 14:10 | 42.20182 | -15.31031 | 36066 ft | 482 kts | 308° |
| 2026-05-01 14:11 | 42.24563 | -15.37824 | 36062 ft | 482 kts | 308° |
| 2026-05-01 14:11 | 42.31143 | -15.48053 | 36059 ft | 482 kts | 308° |
| 2026-05-01 14:12 | 42.35542 | -15.54907 | 36065 ft | 482 kts | 308° |
| 2026-05-01 14:12 | 42.39894 | -15.61709 | 36064 ft | 483 kts | 309° |
| 2026-05-01 14:13 | 42.43547 | -15.67428 | 36070 ft | 482 kts | 308° |
| 2026-05-01 14:13 | 42.48661 | -15.75454 | 36068 ft | 483 kts | 308° |
| 2026-05-01 14:14 | 42.53030 | -15.82329 | 36066 ft | 483 kts | 308° |
| 2026-05-01 14:14 | 42.57403 | -15.89222 | 36068 ft | 483 kts | 308° |
| 2026-05-01 14:15 | 42.61743 | -15.96084 | 36062 ft | 483 kts | 308° |
| 2026-05-01 14:15 | 42.66113 | -16.03008 | 36069 ft | 483 kts | 309° |
| 2026-05-01 14:16 | 42.70473 | -16.09935 | 36078 ft | 483 kts | 309° |
| 2026-05-01 14:16 | 42.74811 | -16.16840 | 36082 ft | 483 kts | 309° |
| 2026-05-01 14:17 | 42.79164 | -16.23784 | 36084 ft | 483 kts | 309° |
| 2026-05-01 14:17 | 42.83500 | -16.30718 | 36088 ft | 482 kts | 309° |
| 2026-05-01 14:18 | 42.87810 | -16.37631 | 36089 ft | 482 kts | 309° |
| 2026-05-01 14:18 | 42.91421 | -16.43435 | 36090 ft | 483 kts | 309° |
| 2026-05-01 14:19 | 42.96482 | -16.51597 | 36097 ft | 485 kts | 310° |
| 2026-05-01 14:19 | 43.00824 | -16.58606 | 36097 ft | 484 kts | 310° |
| 2026-05-01 14:20 | 43.07290 | -16.69069 | 36099 ft | 481 kts | 309° |
| 2026-05-01 14:21 | 43.11599 | -16.76066 | 36102 ft | 481 kts | 310° |
| 2026-05-01 14:21 | 43.15897 | -16.83064 | 36104 ft | 480 kts | 310° |
| 2026-05-01 14:22 | 43.22293 | -16.93512 | 36102 ft | 480 kts | 310° |
| 2026-05-01 14:22 | 43.26578 | -17.00531 | 36105 ft | 480 kts | 310° |
| 2026-05-01 14:23 | 43.30845 | -17.07537 | 36118 ft | 480 kts | 310° |
| 2026-05-01 14:23 | 43.35111 | -17.14559 | 36105 ft | 480 kts | 310° |
| 2026-05-01 14:24 | 43.39372 | -17.21589 | 36117 ft | 479 kts | 310° |
| 2026-05-01 14:24 | 43.43600 | -17.28582 | 36112 ft | 479 kts | 310° |
| 2026-05-01 14:25 | 43.47835 | -17.35604 | 36118 ft | 479 kts | 310° |
| 2026-05-01 14:25 | 43.52075 | -17.42653 | 36124 ft | 478 kts | 310° |
| 2026-05-01 14:26 | 43.58413 | -17.53220 | 36118 ft | 478 kts | 310° |
| 2026-05-01 14:27 | 43.62643 | -17.60294 | 36106 ft | 478 kts | 310° |
| 2026-05-01 14:27 | 43.66864 | -17.67373 | 36127 ft | 477 kts | 310° |
| 2026-05-01 14:28 | 43.71056 | -17.74414 | 35849 ft | 477 kts | 310° |
| 2026-05-01 14:28 | 43.73156 | -17.77950 | 36149 ft | 477 kts | 310° |
| 2026-05-01 14:28 | 43.75235 | -17.81452 | 35939 ft | 477 kts | 310° |
| 2026-05-01 14:28 | 43.77339 | -17.85002 | 36042 ft | 478 kts | 310° |
| 2026-05-01 14:29 | 43.81545 | -17.92114 | 36104 ft | 478 kts | 310° |
| 2026-05-01 14:30 | 43.89910 | -18.06309 | 36122 ft | 478 kts | 310° |
| 2026-05-01 14:31 | 43.96196 | -18.17022 | 36119 ft | 477 kts | 310° |
| 2026-05-01 14:31 | 44.00374 | -18.24162 | 36126 ft | 477 kts | 310° |
| 2026-05-01 14:32 | 44.04536 | -18.31294 | 36128 ft | 477 kts | 310° |
| 2026-05-01 14:32 | 44.08704 | -18.38454 | 36129 ft | 477 kts | 310° |
| 2026-05-01 14:33 | 44.12841 | -18.45579 | 36131 ft | 476 kts | 310° |
| 2026-05-01 14:33 | 44.16995 | -18.52751 | 36131 ft | 476 kts | 310° |
| 2026-05-01 14:34 | 44.21124 | -18.59897 | 36134 ft | 476 kts | 310° |
| 2026-05-01 14:34 | 44.25268 | -18.67088 | 36134 ft | 476 kts | 309° |
| 2026-05-01 14:35 | 44.29377 | -18.74235 | 36137 ft | 476 kts | 309° |
| 2026-05-01 14:35 | 44.33506 | -18.81438 | 36140 ft | 476 kts | 309° |
| 2026-05-01 14:36 | 44.37618 | -18.88627 | 36143 ft | 475 kts | 309° |
| 2026-05-01 14:36 | 44.41739 | -18.95848 | 36143 ft | 475 kts | 309° |
| 2026-05-01 14:37 | 44.45834 | -19.03043 | 36142 ft | 475 kts | 309° |
| 2026-05-01 14:37 | 44.49938 | -19.10272 | 36146 ft | 475 kts | 309° |
| 2026-05-01 14:38 | 44.54046 | -19.17525 | 36147 ft | 476 kts | 309° |
| 2026-05-01 14:38 | 44.58122 | -19.24741 | 36148 ft | 475 kts | 309° |
| 2026-05-01 14:39 | 44.62212 | -19.32002 | 36147 ft | 475 kts | 309° |
| 2026-05-01 14:39 | 44.66279 | -19.39240 | 36147 ft | 475 kts | 309° |
| 2026-05-01 14:40 | 44.70369 | -19.46536 | 36148 ft | 474 kts | 309° |
| 2026-05-01 14:40 | 44.74425 | -19.53790 | 36152 ft | 474 kts | 309° |
| 2026-05-01 14:41 | 44.78475 | -19.61052 | 36151 ft | 474 kts | 309° |
| 2026-05-01 14:41 | 44.82546 | -19.68373 | 36152 ft | 475 kts | 309° |
| 2026-05-01 14:42 | 44.86606 | -19.75695 | 36155 ft | 475 kts | 309° |
| 2026-05-01 14:42 | 44.90643 | -19.82996 | 36154 ft | 474 kts | 309° |
| 2026-05-01 14:43 | 44.94662 | -19.90327 | 36153 ft | 475 kts | 307° |
| 2026-05-01 14:43 | 44.98292 | -19.98071 | 36156 ft | 476 kts | 302° |
| 2026-05-01 14:44 | 45.01350 | -20.06358 | 36160 ft | 478 kts | 296° |
| 2026-05-01 14:44 | 45.04904 | -20.19470 | 36167 ft | 479 kts | 291° |
| 2026-05-01 14:45 | 45.08199 | -20.32753 | 36176 ft | 479 kts | 291° |
| 2026-05-01 14:46 | 45.10396 | -20.41634 | 36185 ft | 479 kts | 291° |
| 2026-05-01 14:46 | 45.13681 | -20.54949 | 36185 ft | 480 kts | 291° |
| 2026-05-01 14:47 | 45.15864 | -20.63836 | 36185 ft | 480 kts | 291° |
| 2026-05-01 14:48 | 45.19134 | -20.77211 | 36188 ft | 480 kts | 291° |
| 2026-05-01 14:48 | 45.22385 | -20.90591 | 36189 ft | 480 kts | 291° |
| 2026-05-01 14:49 | 45.26705 | -21.08488 | 36189 ft | 481 kts | 291° |
| 2026-05-01 14:50 | 45.31004 | -21.26441 | 36195 ft | 482 kts | 291° |
| 2026-05-01 14:51 | 45.34204 | -21.39905 | 36192 ft | 482 kts | 291° |
| 2026-05-01 14:52 | 45.37388 | -21.53379 | 36200 ft | 482 kts | 291° |
| 2026-05-01 14:53 | 45.40571 | -21.66931 | 36205 ft | 483 kts | 291° |
| 2026-05-01 14:53 | 45.42683 | -21.75972 | 36201 ft | 483 kts | 291° |
| 2026-05-01 14:54 | 45.44781 | -21.84992 | 36203 ft | 483 kts | 291° |
| 2026-05-01 14:54 | 45.46880 | -21.94049 | 36212 ft | 484 kts | 291° |
| 2026-05-01 14:55 | 45.48972 | -22.03114 | 36213 ft | 484 kts | 291° |
| 2026-05-01 14:55 | 45.51062 | -22.12205 | 36211 ft | 483 kts | 291° |
| 2026-05-01 14:56 | 45.53144 | -22.21305 | 36210 ft | 484 kts | 291° |
| 2026-05-01 14:56 | 45.55215 | -22.30398 | 36216 ft | 484 kts | 291° |
| 2026-05-01 14:57 | 45.57282 | -22.39507 | 36216 ft | 485 kts | 291° |
| 2026-05-01 14:57 | 45.60366 | -22.53174 | 36218 ft | 485 kts | 291° |
| 2026-05-01 14:58 | 45.62426 | -22.62348 | 36225 ft | 485 kts | 291° |
| 2026-05-01 14:58 | 45.64464 | -22.71462 | 36226 ft | 485 kts | 290° |
| 2026-05-01 14:59 | 45.66501 | -22.80614 | 36223 ft | 486 kts | 290° |
| 2026-05-01 14:59 | 45.68539 | -22.89811 | 36232 ft | 486 kts | 290° |
| 2026-05-01 15:00 | 45.71585 | -23.03631 | 36234 ft | 487 kts | 290° |
| 2026-05-01 15:01 | 45.73597 | -23.12810 | 36239 ft | 487 kts | 291° |
| 2026-05-01 15:01 | 45.75603 | -23.22008 | 36240 ft | 487 kts | 291° |
| 2026-05-01 15:02 | 45.77622 | -23.31287 | 36251 ft | 487 kts | 291° |
| 2026-05-01 15:02 | 45.79621 | -23.40523 | 36251 ft | 488 kts | 291° |
| 2026-05-01 15:03 | 45.81598 | -23.49706 | 36258 ft | 487 kts | 290° |
| 2026-05-01 15:03 | 45.83594 | -23.59016 | 36254 ft | 488 kts | 291° |
| 2026-05-01 15:04 | 45.85568 | -23.68267 | 36253 ft | 488 kts | 290° |
| 2026-05-01 15:04 | 45.87529 | -23.77496 | 36255 ft | 488 kts | 290° |
| 2026-05-01 15:05 | 45.89492 | -23.86779 | 36259 ft | 488 kts | 290° |
| 2026-05-01 15:05 | 45.91457 | -23.96108 | 36274 ft | 488 kts | 290° |
| 2026-05-01 15:06 | 45.93407 | -24.05414 | 36262 ft | 488 kts | 290° |
| 2026-05-01 15:06 | 45.95347 | -24.14707 | 36275 ft | 488 kts | 290° |
| 2026-05-01 15:07 | 45.97270 | -24.23973 | 36261 ft | 488 kts | 290° |
| 2026-05-01 15:07 | 45.99206 | -24.33338 | 36259 ft | 489 kts | 290° |
| 2026-05-01 15:08 | 46.01133 | -24.42701 | 36244 ft | 489 kts | 290° |
| 2026-05-01 15:08 | 46.03043 | -24.52022 | 36241 ft | 489 kts | 290° |
| 2026-05-01 15:09 | 46.04940 | -24.61330 | 36258 ft | 488 kts | 290° |
| 2026-05-01 15:09 | 46.06843 | -24.70701 | 36280 ft | 488 kts | 289° |
| 2026-05-01 15:10 | 46.08732 | -24.80063 | 36263 ft | 488 kts | 289° |
| 2026-05-01 15:10 | 46.11547 | -24.94089 | 36260 ft | 489 kts | 289° |
| 2026-05-01 15:11 | 46.14359 | -25.08184 | 36287 ft | 489 kts | 289° |
| 2026-05-01 15:12 | 46.16211 | -25.17534 | 36301 ft | 489 kts | 289° |
| 2026-05-01 15:12 | 46.18986 | -25.31625 | 36294 ft | 489 kts | 289° |
| 2026-05-01 15:14 | 46.23581 | -25.55190 | 36296 ft | 488 kts | 289° |
| 2026-05-01 15:14 | 46.26304 | -25.69281 | 36299 ft | 489 kts | 289° |
| 2026-05-01 15:15 | 46.29919 | -25.88164 | 36280 ft | 490 kts | 289° |
| 2026-05-01 15:16 | 46.33506 | -26.07090 | 36312 ft | 489 kts | 289° |
| 2026-05-01 15:18 | 46.37946 | -26.30771 | 36325 ft | 490 kts | 289° |
| 2026-05-01 15:19 | 46.41465 | -26.49765 | 36317 ft | 490 kts | 289° |
| 2026-05-01 15:19 | 46.44076 | -26.63975 | 36301 ft | 489 kts | 289° |
| 2026-05-01 15:20 | 46.46679 | -26.78254 | 36298 ft | 490 kts | 289° |
| 2026-05-01 15:21 | 46.48412 | -26.87824 | 36307 ft | 491 kts | 289° |
| 2026-05-01 15:21 | 46.50126 | -26.97340 | 36306 ft | 491 kts | 289° |
| 2026-05-01 15:22 | 46.52694 | -27.11695 | 36329 ft | 490 kts | 289° |
| 2026-05-01 15:22 | 46.54387 | -27.21224 | 36315 ft | 490 kts | 289° |
| 2026-05-01 15:23 | 46.56077 | -27.30774 | 36320 ft | 491 kts | 289° |
| 2026-05-01 15:23 | 46.57762 | -27.40350 | 36332 ft | 491 kts | 289° |
| 2026-05-01 15:24 | 46.59432 | -27.49903 | 36325 ft | 491 kts | 289° |
| 2026-05-01 15:24 | 46.61105 | -27.59519 | 36330 ft | 491 kts | 289° |
| 2026-05-01 15:25 | 46.62770 | -27.69140 | 36341 ft | 491 kts | 288° |
| 2026-05-01 15:25 | 46.64413 | -27.78690 | 36344 ft | 491 kts | 288° |
| 2026-05-01 15:26 | 46.66054 | -27.88275 | 36360 ft | 491 kts | 288° |
| 2026-05-01 15:26 | 46.67700 | -27.97938 | 36349 ft | 491 kts | 288° |
| 2026-05-01 15:27 | 46.69320 | -28.07511 | 36353 ft | 491 kts | 288° |
| 2026-05-01 15:28 | 46.71749 | -28.21965 | 36351 ft | 492 kts | 289° |
| 2026-05-01 15:28 | 46.73362 | -28.31620 | 36346 ft | 491 kts | 289° |
| 2026-05-01 15:29 | 46.75754 | -28.46051 | 36345 ft | 491 kts | 289° |
| 2026-05-01 15:30 | 46.78923 | -28.65367 | 36350 ft | 492 kts | 288° |
| 2026-05-01 15:31 | 46.83614 | -28.94359 | 36356 ft | 491 kts | 288° |
| 2026-05-01 15:32 | 46.86702 | -29.13720 | 36362 ft | 492 kts | 288° |
| 2026-05-01 15:34 | 46.91275 | -29.42840 | 36361 ft | 492 kts | 288° |